Time;durP1;ratioP1;P1;durP2;ratioP2;P2;SDS_P1;SDS_P2;PMS_P1;PMS_P2;Temp;Humidity;BMP_temperature;BMP_pressure;BME280_temperature;BME280_humidity;BME280_pressure;Samples;Min_cycle;Max_cycle;Signal;HPM_P1;HPM_P2
2022/03/19 00:02:26;;;;;;;10.88;2.05;;;11.40;81.60;;;;;;10479305;28;20027;-63
2022/03/19 00:07:27;;;;;;;7.05;2.08;;;11.40;81.50;;;;;;10492170;28;20047;-68
2022/03/19 00:12:28;;;;;;;8.52;2.10;;;11.40;81.50;;;;;;10492596;28;20054;-68
2022/03/19 00:17:29;;;;;;;7.53;2.90;;;11.30;81.40;;;;;;10491047;28;20075;-66
2022/03/19 00:22:31;;;;;;;7.25;2.10;;;11.30;81.30;;;;;;10479335;28;20064;-68
2022/03/19 00:27:31;;;;;;;7.18;1.50;;;11.30;81.20;;;;;;10492060;28;20043;-66
2022/03/19 00:32:32;;;;;;;7.90;1.80;;;11.30;81.20;;;;;;10478181;28;20024;-68
2022/03/19 00:37:49;;;;;;;6.35;1.70;;;11.20;81.10;;;;;;10492347;28;20058;-66
2022/03/19 00:42:52;;;;;;;7.40;2.03;;;11.20;81.10;;;;;;10488117;28;20029;-65
2022/03/19 00:47:53;;;;;;;9.52;3.35;;;11.20;81.10;;;;;;10482790;28;20436;-68
2022/03/19 00:52:54;;;;;;;6.63;1.58;;;11.20;81.00;;;;;;10489654;28;20327;-66
2022/03/19 00:57:54;;;;;;;6.20;1.88;;;11.10;80.90;;;;;;10490608;28;20116;-67
2022/03/19 01:02:56;;;;;;;6.28;2.28;;;11.10;80.80;;;;;;10475819;28;20040;-62
2022/03/19 01:07:57;;;;;;;5.82;1.63;;;11.10;80.80;;;;;;10464317;28;20036;-65
2022/03/19 01:12:58;;;;;;;4.60;1.73;;;11.00;80.60;;;;;;10490882;28;20013;-64
2022/03/19 01:18:00;;;;;;;6.65;1.90;;;11.00;80.60;;;;;;10489579;28;20035;-66
2022/03/19 01:23:01;;;;;;;4.72;1.98;;;11.00;80.60;;;;;;10481394;28;20021;-66
2022/03/19 01:28:02;;;;;;;7.25;1.98;;;10.90;80.50;;;;;;10477697;28;20040;-67
2022/03/19 01:33:03;;;;;;;8.25;1.60;;;10.90;80.50;;;;;;10487357;28;20017;-64
2022/03/19 01:38:04;;;;;;;3.75;1.77;;;10.90;80.50;;;;;;10490831;28;20035;-64
2022/03/19 01:43:05;;;;;;;5.28;1.42;;;10.80;80.40;;;;;;10483241;28;20048;-65
2022/03/19 01:48:06;;;;;;;3.60;1.25;;;10.80;80.40;;;;;;10481356;28;20039;-62
2022/03/19 01:53:07;;;;;;;3.67;1.33;;;10.80;80.40;;;;;;10474658;28;20052;-66
2022/03/19 01:58:08;;;;;;;6.57;1.88;;;10.50;80.20;;;;;;10482117;28;20529;-64
2022/03/19 02:03:09;;;;;;;6.03;1.73;;;10.80;80.30;;;;;;10472362;28;20112;-67
2022/03/19 02:08:10;;;;;;;6.78;2.08;;;10.70;80.30;;;;;;10486932;28;20475;-65
2022/03/19 02:13:11;;;;;;;6.38;1.65;;;10.70;80.30;;;;;;10486500;28;20044;-67
2022/03/19 02:18:11;;;;;;;9.02;2.08;;;10.70;80.30;;;;;;10486564;28;20032;-65
2022/03/19 02:28:41;;;;;;;3.35;1.55;;;10.60;80.20;;;;;;10486237;28;20040;-65
2022/03/19 02:33:42;;;;;;;4.03;1.55;;;10.60;80.30;;;;;;10485239;28;20025;-60
2022/03/19 02:38:49;;;;;;;6.50;1.92;;;10.50;80.20;;;;;;10486202;28;20028;-67
2022/03/19 02:43:50;;;;;;;5.50;1.35;;;10.60;80.30;;;;;;10454086;28;20032;-66
2022/03/19 02:48:51;;;;;;;5.85;1.92;;;10.50;80.20;;;;;;10484481;28;20044;-64
2022/03/19 02:53:51;;;;;;;6.53;1.60;;;10.50;80.20;;;;;;10473077;28;20086;-65
2022/03/19 02:58:52;;;;;;;10.80;2.03;;;10.40;80.10;;;;;;10485154;28;20124;-67
2022/03/19 03:03:53;;;;;;;7.13;2.00;;;10.40;80.20;;;;;;10485655;28;20025;-65
2022/03/19 03:08:55;;;;;;;6.45;1.80;;;10.40;80.20;;;;;;10485005;28;20139;-66
2022/03/19 03:13:56;;;;;;;5.43;1.35;;;10.40;80.20;;;;;;10485088;28;20043;-67
2022/03/19 03:18:58;;;;;;;5.88;2.28;;;10.30;80.30;;;;;;10477246;28;20033;-68
2022/03/19 03:23:59;;;;;;;6.43;1.75;;;10.30;80.70;;;;;;10471114;28;20424;-66
2022/03/19 03:29:00;;;;;;;5.88;1.50;;;10.30;80.10;;;;;;10483913;28;20123;-66
2022/03/19 03:34:02;;;;;;;5.03;1.70;;;10.30;80.10;;;;;;10482283;28;20473;-67
2022/03/19 03:39:02;;;;;;;9.15;2.33;;;10.30;80.20;;;;;;10442858;28;20052;-67
2022/03/19 03:44:03;;;;;;;8.07;2.22;;;10.20;80.10;;;;;;10472834;28;20516;-68
2022/03/19 03:49:04;;;;;;;5.78;2.10;;;10.20;80.10;;;;;;10482542;28;20410;-67
2022/03/19 03:54:06;;;;;;;7.10;1.70;;;10.20;80.10;;;;;;10473667;28;20364;-65
2022/03/19 03:59:06;;;;;;;4.47;2.10;;;10.20;80.10;;;;;;10483573;28;20127;-67
2022/03/19 04:04:08;;;;;;;5.85;1.55;;;10.10;80.10;;;;;;10484092;28;20052;-60
2022/03/19 04:09:09;;;;;;;7.70;1.80;;;10.10;80.10;;;;;;10482870;28;20384;-67
2022/03/19 04:14:10;;;;;;;6.75;1.70;;;10.10;80.10;;;;;;10484033;28;20445;-62
2022/03/19 04:19:10;;;;;;;5.38;1.95;;;10.10;80.70;;;;;;10483114;28;20082;-66
2022/03/19 04:24:11;;;;;;;7.32;1.95;;;10.10;80.10;;;;;;10476391;28;20024;-62
2022/03/19 04:29:12;;;;;;;6.20;2.00;;;10.10;80.20;;;;;;10484395;28;20479;-64
2022/03/19 04:34:12;;;;;;;7.97;2.22;;;10.00;80.10;;;;;;10484220;28;20406;-63
2022/03/19 04:39:15;;;;;;;6.85;2.03;;;10.00;80.20;;;;;;10491257;28;20812;-64
2022/03/19 04:44:16;;;;;;;7.70;2.22;;;10.00;80.10;;;;;;10479485;28;20137;-63
2022/03/19 04:49:17;;;;;;;3.30;1.83;;;10.00;80.10;;;;;;10489922;28;20574;-64
2022/03/19 04:54:18;;;;;;;5.47;2.00;;;10.00;80.10;;;;;;10490496;28;20560;-65
2022/03/19 04:59:19;;;;;;;7.30;2.08;;;9.90;80.10;;;;;;10489460;28;20094;-65
2022/03/19 05:04:19;;;;;;;2.65;1.80;;;9.90;80.20;;;;;;10490672;28;20463;-64
2022/03/19 05:14:41;;;;;;;5.80;2.45;;;9.90;80.20;;;;;;10489797;28;20041;-62
2022/03/19 05:19:42;;;;;;;7.15;2.28;;;9.90;80.20;;;;;;10488867;28;20032;-63
2022/03/19 05:24:43;;;;;;;6.20;1.85;;;9.80;80.10;;;;;;10475515;28;20021;-63
2022/03/19 05:29:44;;;;;;;6.65;2.13;;;9.80;80.20;;;;;;10484987;28;20135;-64
2022/03/19 05:34:46;;;;;;;6.95;2.22;;;9.80;80.10;;;;;;10490484;28;20113;-64
2022/03/19 05:39:46;;;;;;;5.63;2.05;;;9.80;80.30;;;;;;10489282;28;20009;-65
2022/03/19 05:44:48;;;;;;;6.65;2.03;;;9.80;80.10;;;;;;10476117;28;20020;-65
2022/03/19 05:49:49;;;;;;;6.22;2.53;;;9.40;79.90;;;;;;10455819;28;20136;-62
2022/03/19 05:54:50;;;;;;;3.65;1.73;;;9.70;80.10;;;;;;10489805;28;20028;-64
2022/03/19 05:59:50;;;;;;;5.63;1.92;;;9.70;80.10;;;;;;10487729;28;20398;-67
2022/03/19 06:04:52;;;;;;;6.95;2.00;;;9.70;80.00;;;;;;10488226;28;20024;-67
2022/03/19 06:09:54;;;;;;;6.32;1.80;;;9.80;80.00;;;;;;10488230;28;20039;-66
2022/03/19 06:14:55;;;;;;;9.05;2.85;;;9.70;79.90;;;;;;10487479;28;20025;-68
2022/03/19 06:19:56;;;;;;;7.55;2.00;;;9.70;79.80;;;;;;10487512;28;20032;-68
2022/03/19 06:24:57;;;;;;;5.47;2.80;;;9.70;79.80;;;;;;10486963;28;20028;-65
2022/03/19 06:29:59;;;;;;;6.68;1.95;;;9.70;79.70;;;;;;10480105;28;20060;-64
2022/03/19 06:35:02;;;;;;;4.75;1.83;;;9.70;79.70;;;;;;10471677;28;20509;-65
2022/03/19 06:40:06;;;;;;;6.20;2.15;;;9.70;79.70;;;;;;10475163;28;20647;-66
2022/03/19 06:45:07;;;;;;;7.47;2.20;;;9.70;79.60;;;;;;10470618;28;20472;-65
2022/03/19 06:50:08;;;;;;;7.18;2.60;;;9.70;79.60;;;;;;10447643;28;20056;-65
2022/03/19 06:55:09;;;;;;;4.43;1.98;;;9.70;79.60;;;;;;10485723;28;20059;-66
2022/03/19 07:00:10;;;;;;;6.00;1.85;;;9.60;79.50;;;;;;10485922;28;20111;-66
2022/03/19 07:05:11;;;;;;;7.70;1.73;;;9.60;79.50;;;;;;10484698;28;20032;-65
2022/03/19 07:10:13;;;;;;;3.95;1.77;;;9.60;79.40;;;;;;10485470;28;20423;-62
2022/03/19 07:15:15;;;;;;;6.75;1.67;;;9.60;79.40;;;;;;10485531;28;20088;-66
2022/03/19 07:20:16;;;;;;;4.75;2.03;;;9.70;79.50;;;;;;10484367;28;20024;-66
2022/03/19 07:25:19;;;;;;;7.90;2.28;;;9.70;79.30;;;;;;10478976;28;20419;-64
2022/03/19 07:30:20;;;;;;;3.80;1.40;;;9.80;79.20;;;;;;10472200;28;20040;-66
2022/03/19 07:35:21;;;;;;;5.32;1.98;;;9.80;79.10;;;;;;10477833;28;20051;-65
2022/03/19 07:45:42;;;;;;;3.53;1.40;;;10.00;78.70;;;;;;10469537;28;20027;-64
2022/03/19 07:50:43;;;;;;;3.35;1.55;;;10.20;78.60;;;;;;10454043;28;20044;-65
2022/03/19 07:55:44;;;;;;;7.88;2.03;;;10.30;78.40;;;;;;10453202;28;20387;-65
2022/03/19 08:00:46;;;;;;;4.07;1.58;;;10.40;78.30;;;;;;10432755;28;20032;-65
2022/03/19 08:05:47;;;;;;;3.95;1.45;;;10.50;78.00;;;;;;10442518;28;20402;-64
2022/03/19 08:10:48;;;;;;;5.13;1.40;;;10.70;78.20;;;;;;10475288;28;20025;-64
2022/03/19 08:15:49;;;;;;;4.75;1.42;;;10.80;78.00;;;;;;10491387;28;20478;-63
2022/03/19 08:20:49;;;;;;;4.22;1.40;;;10.90;78.00;;;;;;10479414;28;20093;-67
2022/03/19 08:25:50;;;;;;;4.65;1.30;;;10.80;78.00;;;;;;10460462;28;20039;-65
2022/03/19 08:30:51;;;;;;;5.63;1.55;;;10.80;78.10;;;;;;10483787;28;20493;-65
2022/03/19 08:35:52;;;;;;;3.03;1.30;;;10.80;78.20;;;;;;10476487;28;20036;-63
2022/03/19 08:40:53;;;;;;;3.53;1.20;;;10.90;78.50;;;;;;10484568;28;20024;-63
2022/03/19 08:45:54;;;;;;;3.67;1.15;;;10.90;79.20;;;;;;10477636;28;20037;-62
2022/03/19 08:51:39;;;;;;;2.88;1.17;;;10.90;78.80;;;;;;10451528;28;20045;-65
2022/03/19 08:56:15;;;;;;;5.28;1.30;;;10.90;78.90;;;;;;10454796;28;20384;-67
2022/03/19 09:01:16;;;;;;;5.13;1.13;;;10.90;79.20;;;;;;10453429;28;20021;-66
2022/03/19 09:06:17;;;;;;;4.85;1.38;;;10.90;79.40;;;;;;10460492;28;20037;-66
2022/03/19 09:11:19;;;;;;;2.83;1.55;;;10.90;79.50;;;;;;10456428;28;20029;-69
2022/03/19 09:16:20;;;;;;;4.10;1.30;;;10.90;79.40;;;;;;10464497;28;20491;-68
2022/03/19 09:21:21;;;;;;;4.80;1.40;;;10.90;79.50;;;;;;10450189;28;20108;-71
2022/03/19 09:26:22;;;;;;;3.03;1.50;;;11.00;79.60;;;;;;10469324;28;20422;-71
2022/03/19 09:31:22;;;;;;;3.22;1.75;;;11.00;79.50;;;;;;10469159;28;20383;-68
2022/03/19 09:36:24;;;;;;;1.58;1.10;;;11.00;79.50;;;;;;10466590;28;20070;-69
2022/03/19 09:41:25;;;;;;;5.00;1.42;;;11.10;79.60;;;;;;10470732;28;20060;-66
2022/03/19 09:46:26;;;;;;;6.22;1.48;;;11.10;79.70;;;;;;10469975;28;20048;-69
2022/03/19 09:51:27;;;;;;;4.65;1.17;;;11.10;79.70;;;;;;10460437;28;20036;-66
2022/03/19 09:56:29;;;;;;;6.25;1.10;;;11.20;79.80;;;;;;10488048;28;20024;-66
2022/03/19 10:01:31;;;;;;;3.17;1.00;;;11.30;79.70;;;;;;10473601;28;20056;-63
2022/03/19 10:12:08;;;;;;;3.28;1.20;;;11.50;79.90;;;;;;10478415;28;20441;-61
2022/03/19 10:17:09;;;;;;;5.50;1.92;;;11.50;80.10;;;;;;10451153;28;20121;-65
2022/03/19 10:22:10;;;;;;;6.45;1.50;;;11.60;78.20;;;;;;10484322;28;20056;-65
2022/03/19 10:27:18;;;;;;;7.25;1.83;;;11.40;75.90;;;;;;10471667;28;20043;-64
2022/03/19 10:32:20;;;;;;;4.95;1.80;;;11.10;74.10;;;;;;10478541;28;20151;-63
2022/03/19 10:37:35;;;;;;;4.65;1.67;;;11.10;74.80;;;;;;10487781;28;20039;-62
2022/03/19 10:42:41;;;;;;;5.05;1.63;;;11.10;71.50;;;;;;10476171;28;20525;-63
2022/03/19 10:47:47;;;;;;;6.32;1.70;;;11.00;73.80;;;;;;10472233;28;20063;-64
2022/03/19 10:52:50;;;;;;;10.15;1.90;;;10.90;72.20;;;;;;10477369;28;20059;-67
2022/03/19 10:57:52;;;;;;;6.07;1.75;;;11.10;72.90;;;;;;10485996;28;20108;-69
2022/03/19 11:03:00;;;;;;;7.65;1.67;;;11.10;71.40;;;;;;10485187;28;20031;-73
2022/03/19 11:08:02;;;;;;;5.95;1.40;;;11.20;71.20;;;;;;10481971;28;20457;-71
2022/03/19 11:13:06;;;;;;;6.82;1.52;;;11.20;69.30;;;;;;10437576;28;20046;-65
2022/03/19 11:18:07;;;;;;;5.18;1.80;;;10.60;69.50;;;;;;10455327;28;20035;-65
2022/03/19 11:23:09;;;;;;;6.82;1.60;;;11.30;66.60;;;;;;10483176;28;20040;-68
2022/03/19 11:28:12;;;;;;;4.85;1.17;;;11.20;66.20;;;;;;10457715;28;20074;-66
2022/03/19 11:33:17;;;;;;;4.90;1.20;;;11.30;64.30;;;;;;10437174;28;20552;-62
2022/03/19 11:38:21;;;;;;;3.63;1.52;;;11.40;65.10;;;;;;10454275;28;20109;-66
2022/03/19 11:43:25;;;;;;;7.38;1.90;;;11.60;65.80;;;;;;10442989;28;20033;-64
2022/03/19 11:48:37;;;;;;;4.05;1.42;;;11.70;64.40;;;;;;10466522;28;20533;-67
2022/03/19 11:53:59;;;;;;;3.95;1.20;;;11.80;64.80;;;;;;10480906;28;20064;-66
2022/03/19 11:59:04;;;;;;;3.90;1.20;;;12.00;61.00;;;;;;10473145;28;20029;-68
2022/03/19 12:04:05;;;;;;;5.55;1.40;;;12.00;60.60;;;;;;10471294;28;20020;-65
2022/03/19 12:09:06;;;;;;;3.10;1.08;;;12.00;61.50;;;;;;10473303;28;20033;-67
2022/03/19 12:14:15;;;;;;;6.10;1.27;;;12.20;61.10;;;;;;10465173;28;20099;-68
2022/03/19 12:19:54;;;;;;;3.70;0.90;;;12.40;61.20;;;;;;10483860;28;20028;-64
2022/03/19 12:25:10;;;;;;;5.30;1.15;;;12.40;58.10;;;;;;10482615;28;20282;-67
2022/03/19 12:30:11;;;;;;;5.25;1.08;;;12.40;59.40;;;;;;10482517;28;20040;-66
2022/03/19 12:35:12;;;;;;;4.60;1.10;;;12.60;60.50;;;;;;10472731;28;20038;-65
2022/03/19 12:40:21;;;;;;;4.50;1.23;;;12.80;60.60;;;;;;10445942;28;20028;-63
2022/03/19 12:45:42;;;;;;;3.55;1.13;;;12.90;60.50;;;;;;10457127;28;20082;-66
2022/03/19 12:50:55;;;;;;;4.82;1.27;;;12.90;58.00;;;;;;10478335;28;20510;-64
2022/03/19 12:56:14;;;;;;;4.47;1.38;;;12.90;58.80;;;;;;10465857;28;20024;-65
2022/03/19 13:01:17;;;;;;;2.70;0.90;;;13.00;57.40;;;;;;10472036;28;20024;-63
2022/03/19 13:06:27;;;;;;;4.07;2.30;;;13.00;57.90;;;;;;10479062;28;20078;-64
2022/03/19 13:11:39;;;;;;;4.72;2.15;;;12.90;57.80;;;;;;10490157;28;20043;-66
2022/03/19 13:16:47;;;;;;;6.72;2.17;;;12.90;58.50;;;;;;10484271;28;20170;-65
2022/03/19 13:21:50;;;;;;;8.60;1.47;;;13.00;57.90;;;;;;10455914;28;20048;-64
2022/03/19 13:26:51;;;;;;;2.22;1.20;;;13.10;58.20;;;;;;10489785;28;20402;-63
2022/03/19 13:31:55;;;;;;;4.47;1.67;;;13.10;58.00;;;;;;10484834;28;20031;-62
2022/03/19 13:37:08;;;;;;;2.85;1.20;;;13.20;57.70;;;;;;10490014;28;20535;-62
2022/03/19 13:42:17;;;;;;;5.68;1.60;;;13.20;55.80;;;;;;10489712;28;20036;-64
2022/03/19 13:47:19;;;;;;;6.07;1.27;;;12.40;56.10;;;;;;10481419;28;20045;-64
2022/03/19 13:52:28;;;;;;;3.45;1.30;;;13.30;57.20;;;;;;10460945;28;20041;-65
2022/03/19 13:57:32;;;;;;;3.22;1.50;;;13.30;55.80;;;;;;10452827;28;20543;-65
2022/03/19 14:02:33;;;;;;;3.22;1.35;;;13.40;56.20;;;;;;10450389;28;20025;-64
2022/03/19 14:07:43;;;;;;;5.07;1.90;;;13.50;56.40;;;;;;10455473;28;20045;-63
2022/03/19 14:12:46;;;;;;;5.55;1.52;;;13.70;56.00;;;;;;10467141;28;20017;-65
2022/03/19 14:17:54;;;;;;;3.58;1.40;;;13.80;56.00;;;;;;10452159;28;20041;-65
2022/03/19 14:22:55;;;;;;;2.70;1.17;;;14.00;56.20;;;;;;10468920;28;20032;-64
2022/03/19 14:28:08;;;;;;;3.00;1.20;;;14.00;55.30;;;;;;10476553;28;20044;-66
2022/03/19 14:33:10;;;;;;;5.13;1.38;;;14.00;54.70;;;;;;10456015;28;20257;-65
2022/03/19 14:38:12;;;;;;;4.07;1.30;;;14.00;55.40;;;;;;10451480;28;20029;-64
2022/03/19 14:43:15;;;;;;;5.18;1.13;;;13.90;54.60;;;;;;10455472;28;20425;-63
2022/03/19 14:48:16;;;;;;;4.70;1.42;;;13.90;55.00;;;;;;10447980;28;20033;-64
2022/03/19 14:53:18;;;;;;;8.13;1.13;;;14.00;54.80;;;;;;10453833;28;20427;-68
2022/03/19 14:58:21;;;;;;;8.70;1.42;;;13.90;53.50;;;;;;10454181;28;20029;-64
2022/03/19 15:03:22;;;;;;;2.97;1.15;;;13.90;54.40;;;;;;10449073;28;20021;-67
2022/03/19 15:08:23;;;;;;;2.83;1.00;;;14.00;54.20;;;;;;10434060;28;20087;-66
2022/03/19 15:13:27;;;;;;;4.32;1.42;;;13.80;54.70;;;;;;10453208;28;20103;-66
2022/03/19 15:18:28;;;;;;;4.63;1.08;;;13.20;54.80;;;;;;10452214;28;20021;-65
2022/03/19 15:23:29;;;;;;;1.33;0.90;;;13.70;54.70;;;;;;10450370;28;20561;-63
2022/03/19 15:28:30;;;;;;;3.67;0.90;;;13.40;54.40;;;;;;10466629;28;20047;-71
2022/03/19 15:33:31;;;;;;;5.38;1.00;;;13.10;54.80;;;;;;10466347;28;20033;-66
2022/03/19 15:38:32;;;;;;;6.57;1.20;;;12.80;55.10;;;;;;10475972;28;20037;-64
2022/03/19 15:43:34;;;;;;;8.23;1.48;;;12.10;55.20;;;;;;10484227;28;20031;-64
2022/03/19 15:48:34;;;;;;;2.35;0.90;;;12.50;55.50;;;;;;10477053;28;20123;-71
2022/03/19 15:53:35;;;;;;;2.60;0.77;;;12.60;56.50;;;;;;10452681;28;20337;-66
2022/03/19 15:58:36;;;;;;;2.13;0.80;;;12.90;57.70;;;;;;10438420;28;20033;-67
2022/03/19 16:03:37;;;;;;;2.72;1.10;;;13.00;58.50;;;;;;10459790;28;20025;-70
2022/03/19 16:08:37;;;;;;;5.07;0.93;;;13.20;58.50;;;;;;10447910;28;20476;-69
2022/03/19 16:13:38;;;;;;;2.00;0.77;;;13.30;58.50;;;;;;10451107;28;20036;-68
2022/03/19 16:18:39;;;;;;;2.95;0.80;;;13.30;58.50;;;;;;10450487;28;20021;-67
2022/03/19 16:23:40;;;;;;;1.90;0.90;;;13.40;59.10;;;;;;10473880;28;20031;-66
2022/03/19 16:28:41;;;;;;;4.97;0.80;;;13.40;59.50;;;;;;10440255;28;20041;-64
2022/03/19 16:33:41;;;;;;;2.45;0.90;;;13.50;60.00;;;;;;10472938;28;20036;-67
2022/03/19 16:38:42;;;;;;;3.30;0.52;;;13.50;60.30;;;;;;10492368;28;20029;-69
2022/03/19 16:43:43;;;;;;;1.10;0.50;;;13.50;60.60;;;;;;10491860;28;20048;-71
2022/03/19 16:48:44;;;;;;;1.63;0.55;;;13.50;60.70;;;;;;10460945;28;20106;-71
2022/03/19 16:53:45;;;;;;;2.70;0.60;;;13.50;60.80;;;;;;10457655;28;20512;-67
2022/03/19 16:58:45;;;;;;;5.85;0.85;;;13.50;61.40;;;;;;10458505;28;20033;-70
2022/03/19 17:03:46;;;;;;;2.53;0.70;;;13.50;61.70;;;;;;10459541;28;20085;-63
2022/03/19 17:08:47;;;;;;;2.47;0.73;;;13.60;62.00;;;;;;10467312;28;20401;-67
2022/03/19 17:13:47;;;;;;;3.80;0.70;;;13.50;62.20;;;;;;10465346;28;20123;-69
2022/03/19 17:18:48;;;;;;;2.25;0.50;;;13.50;62.30;;;;;;10484575;28;20037;-68
2022/03/19 17:23:49;;;;;;;1.40;0.60;;;13.50;62.70;;;;;;10476741;28;20078;-71
2022/03/19 17:28:53;;;;;;;2.38;0.80;;;13.50;62.90;;;;;;10436676;28;20064;-72
2022/03/19 17:33:54;;;;;;;2.40;1.30;;;13.40;63.10;;;;;;10460276;28;20028;-62
2022/03/19 17:38:54;;;;;;;2.03;0.82;;;13.40;63.30;;;;;;10459714;28;20035;-63
2022/03/19 17:43:55;;;;;;;1.45;0.80;;;13.40;63.50;;;;;;10471288;28;20066;-61
2022/03/19 17:48:57;;;;;;;2.28;0.60;;;13.30;63.60;;;;;;10480804;28;20123;-69
2022/03/19 17:53:58;;;;;;;1.40;0.50;;;13.20;63.80;;;;;;10461318;28;20060;-71
2022/03/19 17:58:59;;;;;;;1.27;0.73;;;13.20;63.90;;;;;;10472816;28;20060;-70
2022/03/19 18:03:59;;;;;;;2.08;0.77;;;13.20;64.00;;;;;;10477651;28;20034;-67
2022/03/19 18:09:00;;;;;;;2.00;0.60;;;13.10;64.10;;;;;;10486617;28;20090;-66
2022/03/19 18:14:04;;;;;;;0.68;0.50;;;13.10;64.30;;;;;;10486649;28;20029;-64
2022/03/19 18:19:06;;;;;;;3.70;0.90;;;13.10;64.30;;;;;;10485648;28;20032;-64
2022/03/19 18:24:07;;;;;;;2.83;0.80;;;13.00;64.40;;;;;;10475785;28;20041;-68
2022/03/19 18:29:08;;;;;;;2.60;0.50;;;12.90;64.50;;;;;;10475743;28;21041;-65
2022/03/19 18:34:09;;;;;;;1.55;0.70;;;12.90;64.60;;;;;;10485551;28;20032;-64
2022/03/19 18:39:09;;;;;;;1.13;0.50;;;12.90;64.70;;;;;;10485781;28;20414;-64
2022/03/19 18:44:12;;;;;;;1.13;0.70;;;12.90;64.80;;;;;;10486038;28;20024;-67
2022/03/19 18:49:12;;;;;;;3.35;0.85;;;12.80;64.90;;;;;;10485240;28;20044;-64
2022/03/19 18:54:16;;;;;;;3.72;1.42;;;12.80;65.10;;;;;;10403245;28;20132;-67
2022/03/19 18:59:17;;;;;;;2.08;0.75;;;12.80;65.20;;;;;;10403219;28;20152;-67
2022/03/19 19:04:17;;;;;;;1.42;0.50;;;12.70;65.30;;;;;;10396040;28;20026;-65
2022/03/19 19:09:18;;;;;;;1.05;0.80;;;12.70;65.50;;;;;;10402244;28;20037;-67
2022/03/19 19:14:19;;;;;;;1.55;0.63;;;12.60;65.60;;;;;;10402969;28;20387;-67
2022/03/19 19:19:19;;;;;;;4.22;1.10;;;12.60;65.70;;;;;;10402435;28;20178;-64
2022/03/19 19:24:20;;;;;;;1.73;0.70;;;12.60;65.70;;;;;;10390087;28;20018;-67
2022/03/19 19:29:21;;;;;;;1.50;0.73;;;12.50;65.80;;;;;;10396957;28;20099;-66
2022/03/19 19:34:22;;;;;;;1.08;0.88;;;12.50;65.80;;;;;;10402338;28;20080;-63
2022/03/19 19:39:23;;;;;;;1.33;0.80;;;12.50;66.00;;;;;;10402384;28;20036;-67
2022/03/19 19:44:26;;;;;;;1.27;0.98;;;12.40;65.90;;;;;;10401909;28;20460;-64
2022/03/19 19:49:28;;;;;;;2.42;1.15;;;12.40;66.10;;;;;;10401048;28;20030;-65
2022/03/19 19:54:39;;;;;;;1.15;0.82;;;12.40;66.10;;;;;;10476836;28;20541;-67
2022/03/19 19:59:41;;;;;;;1.20;0.75;;;12.30;66.00;;;;;;10475087;28;20414;-66
2022/03/19 20:04:42;;;;;;;4.13;0.88;;;12.30;66.00;;;;;;10472365;28;20332;-63
2022/03/19 20:09:43;;;;;;;3.50;0.90;;;12.20;66.00;;;;;;10492089;28;20554;-63
2022/03/19 20:14:44;;;;;;;4.07;0.90;;;12.20;66.00;;;;;;10491767;28;20055;-68
2022/03/19 20:19:44;;;;;;;2.50;0.90;;;12.20;66.00;;;;;;10478063;28;20282;-65
2022/03/19 20:24:45;;;;;;;1.75;0.88;;;12.20;66.00;;;;;;10490680;28;20394;-67
2022/03/19 20:29:46;;;;;;;2.60;0.80;;;12.10;65.90;;;;;;10490392;28;20438;-66
2022/03/19 20:34:47;;;;;;;1.83;0.80;;;12.10;66.00;;;;;;10491968;28;20063;-65
2022/03/19 20:39:48;;;;;;;3.58;1.08;;;12.00;66.00;;;;;;10491832;28;20047;-62
2022/03/19 20:44:51;;;;;;;2.25;1.08;;;12.00;66.00;;;;;;10492294;28;20418;-65
2022/03/19 20:55:13;;;;;;;1.67;1.23;;;11.90;66.10;;;;;;10490890;28;20120;-65
2022/03/19 21:00:17;;;;;;;2.08;1.25;;;11.90;66.20;;;;;;10490049;28;20052;-66
2022/03/19 21:05:21;;;;;;;1.52;0.98;;;11.90;66.20;;;;;;10481430;28;20422;-65
2022/03/19 21:10:27;;;;;;;2.25;1.13;;;11.80;66.30;;;;;;10490395;28;20155;-66
2022/03/19 21:15:30;;;;;;;3.47;1.38;;;11.80;66.50;;;;;;10465691;28;20056;-67
2022/03/19 21:20:35;;;;;;;2.35;1.30;;;11.80;66.60;;;;;;10488781;28;20115;-63
2022/03/19 21:25:37;;;;;;;2.42;1.27;;;11.70;66.70;;;;;;10481634;28;20036;-63
2022/03/19 21:30:37;;;;;;;3.05;1.40;;;11.70;66.70;;;;;;10484108;28;20033;-63
2022/03/19 21:35:38;;;;;;;3.10;1.55;;;11.70;66.80;;;;;;10489426;28;20559;-62
2022/03/19 21:40:48;;;;;;;3.35;1.60;;;11.70;67.00;;;;;;10488950;28;20167;-62
2022/03/19 21:45:53;;;;;;;2.50;1.52;;;11.60;67.10;;;;;;10486086;28;20025;-61
2022/03/19 21:50:55;;;;;;;3.75;2.10;;;11.60;67.20;;;;;;10487695;28;20059;-62
2022/03/19 21:55:57;;;;;;;3.47;1.83;;;11.60;67.40;;;;;;10488528;28;20521;-65
2022/03/19 22:00:57;;;;;;;2.97;1.85;;;11.50;67.50;;;;;;10487240;28;20501;-64
2022/03/19 22:05:59;;;;;;;3.50;2.05;;;11.50;67.60;;;;;;10479730;28;20374;-61
2022/03/19 22:10:59;;;;;;;2.78;1.80;;;11.40;67.60;;;;;;10487557;28;20388;-64
2022/03/19 22:16:00;;;;;;;3.40;2.05;;;11.40;67.70;;;;;;10487614;28;20032;-66
2022/03/19 22:21:04;;;;;;;3.05;1.92;;;11.60;68.00;;;;;;10486571;28;20510;-65
2022/03/19 22:26:04;;;;;;;2.80;2.08;;;11.40;67.90;;;;;;10473114;28;20482;-66
2022/03/19 22:31:06;;;;;;;2.92;1.88;;;11.40;68.60;;;;;;10483237;28;20035;-67
2022/03/19 22:36:07;;;;;;;4.60;2.10;;;11.30;68.10;;;;;;10486260;28;20459;-66
2022/03/19 22:41:09;;;;;;;4.53;2.40;;;11.30;68.10;;;;;;10486641;28;20034;-64
2022/03/19 22:46:10;;;;;;;4.07;2.13;;;11.30;68.20;;;;;;10486032;28;20053;-66
2022/03/19 22:51:11;;;;;;;4.90;2.22;;;11.20;68.30;;;;;;10485711;28;20131;-65
2022/03/19 22:56:11;;;;;;;3.75;2.13;;;11.20;68.40;;;;;;10486323;28;20029;-64
2022/03/19 23:01:12;;;;;;;3.60;2.40;;;11.20;68.60;;;;;;10485649;28;20418;-67
2022/03/19 23:06:13;;;;;;;4.65;2.58;;;11.20;68.60;;;;;;10480174;28;20037;-62
2022/03/19 23:11:25;;;;;;;4.93;2.40;;;11.20;68.70;;;;;;10450263;28;20470;-65
2022/03/19 23:16:26;;;;;;;4.57;2.45;;;11.10;68.80;;;;;;10433549;28;20025;-67
2022/03/19 23:21:28;;;;;;;3.03;2.20;;;11.10;69.00;;;;;;10454125;28;20353;-64
2022/03/19 23:26:29;;;;;;;3.60;2.50;;;11.10;69.00;;;;;;10480703;28;20072;-64
2022/03/19 23:31:31;;;;;;;3.85;2.00;;;11.00;69.10;;;;;;10484762;28;20017;-68
2022/03/19 23:36:32;;;;;;;4.68;2.60;;;11.00;69.20;;;;;;10485885;28;20048;-67
2022/03/19 23:41:33;;;;;;;5.03;2.22;;;11.00;69.30;;;;;;10455287;28;20070;-64
2022/03/19 23:46:34;;;;;;;4.05;2.00;;;11.00;69.40;;;;;;10484742;28;20384;-67
2022/03/19 23:51:35;;;;;;;7.05;2.58;;;11.00;69.50;;;;;;10483774;28;20045;-66
2022/03/19 23:56:35;;;;;;;3.72;2.17;;;10.90;69.50;;;;;;10484951;28;20040;-63
